Time;durP1;ratioP1;P1;durP2;ratioP2;P2;SDS_P1;SDS_P2;PMS_P1;PMS_P2;Temp;Humidity;BMP_temperature;BMP_pressure;BME280_temperature;BME280_humidity;BME280_pressure;Samples;Min_cycle;Max_cycle;Signal;HPM_P1;HPM_P2
2022/09/05 00:01:29;;;;;;;;;;;;;;;23.47;63.58;100543.38;3954929;32;15723566;-69
2022/09/05 00:04:00;;;;;;;;;;;;;;;23.47;63.58;100543.38;4431485;32;20011;-67
2022/09/05 00:06:31;;;;;;;;;;;;;;;22.78;66.80;100548.44;4432954;32;20013;-67
2022/09/05 00:09:02;;;;;;;;;;;;;;;22.63;67.97;100552.91;4431930;32;19954;-68
2022/09/05 00:14:30;;;;;;;;;;;;;;;22.65;70.03;100558.91;3954620;32;15723464;-68
2022/09/05 00:22:35;;;;;;;;;;;;;;;22.39;69.12;100538.34;3955426;32;15723578;-67
2022/09/05 00:25:13;;;;;;;;;;;;;;;22.39;69.12;100538.34;4434011;32;19954;-69
2022/09/05 00:30:17;;;;;;;;;;;;;;;22.20;70.45;100540.22;3954412;32;15723593;-67
2022/09/05 00:38:12;;;;;;;;;;;;;;;22.23;71.01;100502.69;3953356;32;15728620;-68
2022/09/05 00:40:41;;;;;;;;;;;;;;;22.23;71.01;100502.69;4436345;32;20004;-67
2022/09/05 00:43:12;;;;;;;;;;;;;;;21.74;71.42;100483.47;4438770;32;19968;-67
2022/09/05 00:45:42;;;;;;;;;;;;;;;21.66;71.89;100497.53;4436826;32;20299;-68
2022/09/05 00:48:28;;;;;;;;;;;;;;;21.64;72.27;100497.25;4434702;32;20030;-66
2022/09/05 00:50:58;;;;;;;;;;;;;;;21.65;71.53;100504.56;4438870;32;19949;-66
2022/09/05 00:53:35;;;;;;;;;;;;;;;21.69;70.48;100496.47;4435294;32;19953;-66
2022/09/05 00:59:12;;;;;;;;;;;;;;;22.16;69.58;100499.56;3953439;32;15724714;-68
2022/09/05 01:04:22;;;;;;;;;;;;;;;22.25;69.17;100511.56;3953920;32;15726474;-69
2022/09/05 01:12:14;;;;;;;;;;;;;;;22.34;68.83;100517.00;3953449;32;15723525;-67
2022/09/05 01:17:39;;;;;;;;;;;;;;;22.16;69.47;100691.63;3955134;32;15726644;-69
2022/09/05 01:33:24;;;;;;;;;;;;;;;19.74;80.81;100683.91;3953761;32;15726612;-65
2022/09/05 01:35:59;;;;;;;;;;;;;;;19.41;81.57;100689.25;4428495;32;19982;-67
2022/09/05 01:46:29;;;;;;;;;;;;;;;19.69;84.45;100692.41;3952671;32;15726532;-66
2022/09/05 01:49:00;;;;;;;;;;;;;;;19.69;84.45;100692.41;4429677;32;20056;-68
2022/09/05 01:51:46;;;;;;;;;;;;;;;19.29;84.41;100658.22;4432793;32;19976;-66
2022/09/05 01:57:07;;;;;;;;;;;;;;;19.66;87.61;100642.81;3951728;32;15724199;-66
2022/09/05 01:59:47;;;;;;;;;;;;;;;19.66;87.61;100642.81;4429294;32;20350;-67
2022/09/05 02:12:46;;;;;;;;;;;;;;;19.54;86.62;100626.84;3958728;32;15723854;-67
2022/09/05 02:15:17;;;;;;;;;;;;;;;19.54;86.62;100626.84;4433680;32;19954;-67
2022/09/05 02:20:22;;;;;;;;;;;;;;;19.66;85.88;100610.59;3953582;32;15723339;-66
2022/09/05 02:25:51;;;;;;;;;;;;;;;19.79;84.42;100588.16;3952762;32;15722659;-68
2022/09/05 02:28:25;;;;;;;;;;;;;;;19.79;84.42;100588.16;4429968;32;19993;-66
2022/09/05 02:30:53;;;;;;;;;;;;;;;19.31;84.68;100572.91;4431919;32;20042;-68
2022/09/05 02:33:24;;;;;;;;;;;;;;;19.33;84.73;100556.06;4429581;32;19997;-67
2022/09/05 02:36:04;;;;;;;;;;;;;;;19.19;84.31;100559.75;4429863;32;19958;-67
2022/09/05 02:38:48;;;;;;;;;;;;;;;19.23;84.88;100555.41;4429577;32;19964;-67
2022/09/05 02:43:55;;;;;;;;;;;;;;;19.67;83.10;100566.50;3953093;32;15727464;-67
2022/09/05 02:46:43;;;;;;;;;;;;;;;19.67;83.10;100566.50;4434180;32;19961;-66
2022/09/05 02:49:12;;;;;;;;;;;;;;;19.30;84.45;100557.84;4435347;32;19957;-66
2022/09/05 02:54:18;;;;;;;;;;;;;;;19.40;83.96;100570.66;3953626;32;15732468;-68
2022/09/05 02:57:04;;;;;;;;;;;;;;;19.43;83.76;100575.34;4433851;32;19997;-67
2022/09/05 03:04:50;;;;;;;;;;;;;;;20.09;80.33;100586.59;3951372;32;15722466;-67
2022/09/05 03:10:15;;;;;;;;;;;;;;;20.22;80.97;100595.53;3952183;32;15726334;-67
2022/09/05 03:13:00;;;;;;;;;;;;;;;20.22;80.97;100595.53;4427979;32;20022;-67
2022/09/05 03:15:43;;;;;;;;;;;;;;;19.80;81.87;100612.56;4429241;32;20278;-67
2022/09/05 03:18:28;;;;;;;;;;;;;;;19.78;81.23;100607.38;4429609;32;20424;-67
2022/09/05 03:21:14;;;;;;;;;;;;;;;19.76;81.74;100606.31;4427468;32;20001;-67
2022/09/05 03:29:27;;;;;;;;;;;;;;;20.57;80.97;100607.47;3951342;32;15723318;-68
2022/09/05 03:32:12;;;;;;;;;;;;;;;20.57;80.97;100607.47;4427705;32;20011;-68
2022/09/05 03:34:57;;;;;;;;;;;;;;;20.14;82.23;100597.31;4426941;32;19997;-68
2022/09/05 03:37:43;;;;;;;;;;;;;;;20.14;81.80;100585.87;4428829;32;19968;-68
2022/09/05 03:40:29;;;;;;;;;;;;;;;20.13;81.05;100587.19;4428596;32;20246;-68
2022/09/05 03:43:01;;;;;;;;;;;;;;;20.16;81.54;100579.66;4428121;32;20321;-68
2022/09/05 03:45:46;;;;;;;;;;;;;;;20.17;82.15;100584.88;4415779;32;19994;-68
2022/09/05 03:48:32;;;;;;;;;;;;;;;20.19;81.36;100587.97;4428565;32;19961;-68
2022/09/05 03:59:30;;;;;;;;;;;;;;;20.31;79.60;100588.88;3952113;32;15726303;-67
2022/09/05 04:02:01;;;;;;;;;;;;;;;20.11;79.55;100601.16;4434394;32;19961;-68
2022/09/05 04:04:32;;;;;;;;;;;;;;;20.11;80.13;100608.94;4435259;32;20016;-68
2022/09/05 04:07:00;;;;;;;;;;;;;;;20.17;80.12;100599.16;4435635;32;19950;-67
2022/09/05 04:09:36;;;;;;;;;;;;;;;20.20;79.96;100611.62;4435546;32;20040;-67
2022/09/05 04:12:12;;;;;;;;;;;;;;;20.27;79.67;100614.00;4434099;32;19953;-68
2022/09/05 04:17:22;;;;;;;;;;;;;;;20.69;78.18;100611.97;3952731;32;15722380;-67
2022/09/05 04:19:51;;;;;;;;;;;;;;;20.69;78.18;100611.97;4426351;32;20402;-67
2022/09/05 04:22:29;;;;;;;;;;;;;;;20.25;79.33;100605.94;4414359;32;20028;-67
2022/09/05 04:30:29;;;;;;;;;;;;;;;20.75;78.14;100592.78;3952092;32;15722346;-67
2022/09/05 04:33:00;;;;;;;;;;;;;;;20.75;78.14;100592.78;4430685;32;20001;-67
2022/09/05 04:35:45;;;;;;;;;;;;;;;20.33;78.87;100604.19;4431045;32;19981;-67
2022/09/05 04:38:15;;;;;;;;;;;;;;;20.20;79.53;100595.28;4425586;32;20001;-67
2022/09/05 04:40:46;;;;;;;;;;;;;;;20.20;79.29;100601.00;4429377;32;20001;-67
2022/09/05 04:43:19;;;;;;;;;;;;;;;20.12;79.07;100611.31;4426962;32;19997;-66
2022/09/05 04:45:49;;;;;;;;;;;;;;;20.11;79.41;100626.06;4426569;32;20434;-66
2022/09/05 04:48:18;;;;;;;;;;;;;;;20.09;79.58;100620.88;4427199;32;19991;-66
2022/09/05 04:50:53;;;;;;;;;;;;;;;20.09;79.83;100626.59;4429081;32;19985;-66
2022/09/05 04:53:32;;;;;;;;;;;;;;;20.21;79.70;100619.69;4426302;32;19957;-66
2022/09/05 04:55:59;;;;;;;;;;;;;;;20.21;79.01;100630.34;4425473;32;20461;-66
2022/09/05 05:01:11;;;;;;;;;;;;;;;20.76;77.54;100645.00;3952287;32;15724607;-66
2022/09/05 05:03:38;;;;;;;;;;;;;;;20.76;77.54;100645.00;4431711;32;20030;-67
2022/09/05 05:06:19;;;;;;;;;;;;;;;20.30;78.10;100636.66;4431510;32;20249;-67
2022/09/05 05:08:51;;;;;;;;;;;;;;;20.19;78.48;100642.28;4427051;32;20046;-67
2022/09/05 05:14:00;;;;;;;;;;;;;;;20.43;77.81;100642.72;3951381;32;15783227;-67
2022/09/05 05:16:27;;;;;;;;;;;;;;;20.43;77.81;100642.72;4430622;32;20027;-66
2022/09/05 05:21:29;;;;;;;;;;;;;;;20.45;77.85;100645.88;3952626;32;15725970;-67
2022/09/05 05:23:57;;;;;;;;;;;;;;;20.45;77.85;100645.88;4429845;32;19993;-66
2022/09/05 05:29:18;;;;;;;;;;;;;;;20.64;78.23;100654.81;3952301;32;15721443;-66
2022/09/05 05:32:00;;;;;;;;;;;;;;;20.64;78.23;100654.81;4434884;32;20193;-66
2022/09/05 05:34:33;;;;;;;;;;;;;;;20.35;78.99;100655.94;4436536;32;19988;-67
2022/09/05 05:37:18;;;;;;;;;;;;;;;20.40;79.42;100657.25;4437378;32;20037;-66
2022/09/05 05:39:47;;;;;;;;;;;;;;;20.55;79.36;100649.28;4434743;32;20000;-67
2022/09/05 05:42:19;;;;;;;;;;;;;;;20.54;77.94;100659.97;4433899;32;19941;-67
2022/09/05 05:44:48;;;;;;;;;;;;;;;20.63;77.62;100664.69;4435630;32;20375;-67
2022/09/05 05:47:33;;;;;;;;;;;;;;;20.72;77.54;100653.06;4437129;32;19949;-67
2022/09/05 05:55:37;;;;;;;;;;;;;;;21.39;74.97;100670.06;3952617;32;15722601;-66
2022/09/05 05:58:22;;;;;;;;;;;;;;;21.39;74.97;100670.06;4424874;32;20216;-68
2022/09/05 06:01:08;;;;;;;;;;;;;;;20.93;76.57;100671.66;4425964;32;20483;-67
2022/09/05 06:03:44;;;;;;;;;;;;;;;20.91;76.31;100677.09;4432819;32;19949;-68
2022/09/05 06:06:30;;;;;;;;;;;;;;;21.05;76.45;100664.72;4424021;32;20688;-67
2022/09/05 06:09:07;;;;;;;;;;;;;;;21.06;76.35;100655.62;4428347;32;20008;-67
2022/09/05 06:17:03;;;;;;;;;;;;;;;21.74;74.63;100657.44;3952957;32;15724301;-67
2022/09/05 06:22:14;;;;;;;;;;;;;;;21.95;74.28;100667.37;3952053;32;15722631;-67
2022/09/05 06:32:59;;;;;;;;;;;;;;;21.78;71.77;100655.09;3948572;32;15724530;-67
2022/09/05 06:41:12;;;;;;;;;;;;;;;21.55;72.71;100674.28;3952322;32;15724588;-67
2022/09/05 06:46:33;;;;;;;;;;;;;;;21.74;72.34;100672.53;3947987;31;15716766;-68
2022/09/05 06:49:11;;;;;;;;;;;;;;;21.74;72.34;100672.53;4428903;32;19964;-68
2022/09/05 06:51:44;;;;;;;;;;;;;;;21.47;71.85;100667.47;4432643;32;20026;-69
2022/09/05 06:54:20;;;;;;;;;;;;;;;21.52;71.82;100676.09;4430538;32;20508;-67
2022/09/05 07:02:06;;;;;;;;;;;;;;;22.23;69.95;100689.03;3914191;32;15723420;-69
2022/09/05 07:04:34;;;;;;;;;;;;;;;22.23;69.95;100689.03;4395274;32;20050;-67
2022/09/05 07:12:17;;;;;;;;;;;;;;;22.45;68.37;100709.09;3944503;32;15725399;-70
2022/09/05 07:17:20;;;;;;;;;;;;;;;22.59;66.87;100698.69;3942319;32;15722403;-69
2022/09/05 07:19:56;;;;;;;;;;;;;;;22.59;66.87;100698.69;4425230;32;20377;-69
2022/09/05 07:25:04;;;;;;;;;;;;;;;22.53;65.53;100701.56;3942814;32;15721390;-69
2022/09/05 07:27:49;;;;;;;;;;;;;;;22.53;65.53;100701.56;4417239;32;19984;-69
2022/09/05 07:30:17;;;;;;;;;;;;;;;22.01;67.35;100714.00;4418134;32;20012;-69
2022/09/05 07:32:44;;;;;;;;;;;;;;;22.17;67.59;100714.03;4416888;32;20016;-68
2022/09/05 07:35:19;;;;;;;;;;;;;;;22.28;68.01;100725.53;4421820;32;19997;-69
2022/09/05 07:37:46;;;;;;;;;;;;;;;22.41;66.68;100722.13;4421438;32;20047;-68
2022/09/05 07:40:15;;;;;;;;;;;;;;;22.42;66.32;100730.22;4429881;32;19996;-69
2022/09/05 07:42:47;;;;;;;;;;;;;;;22.39;65.92;100744.78;4425110;32;20056;-68
2022/09/05 07:45:21;;;;;;;;;;;;;;;22.33;65.57;100738.31;4427474;32;19972;-67
2022/09/05 07:47:54;;;;;;;;;;;;;;;22.18;66.00;100737.75;4422096;32;19988;-69
2022/09/05 07:50:20;;;;;;;;;;;;;;;22.40;66.43;100740.66;4425952;32;19961;-68
2022/09/05 07:52:47;;;;;;;;;;;;;;;22.48;65.95;100735.94;4427701;32;19993;-67
2022/09/05 07:57:50;;;;;;;;;;;;;;;23.36;63.62;100744.50;3942167;32;15732329;-69
2022/09/05 08:00:18;;;;;;;;;;;;;;;23.36;63.62;100744.50;4427425;32;20016;-68
2022/09/05 08:02:45;;;;;;;;;;;;;;;23.05;63.10;100750.53;4414971;32;19989;-69
2022/09/05 08:05:14;;;;;;;;;;;;;;;23.13;62.22;100749.47;4431308;32;20409;-68
2022/09/05 08:07:40;;;;;;;;;;;;;;;23.07;62.17;100757.31;4428087;32;20009;-67
2022/09/05 08:10:09;;;;;;;;;;;;;;;23.05;62.26;100748.47;4421388;32;20351;-68
2022/09/05 08:12:38;;;;;;;;;;;;;;;23.23;62.37;100747.12;4424941;32;20378;-67
2022/09/05 08:17:50;;;;;;;;;;;;;;;23.90;60.80;100742.66;3957280;32;15716538;-69
2022/09/05 08:20:23;;;;;;;;;;;;;;;24.10;60.00;100736.56;4432823;32;19953;-68
2022/09/05 08:22:55;;;;;;;;;;;;;;;24.38;58.47;100739.25;4432272;32;20010;-68
2022/09/05 08:25:26;;;;;;;;;;;;;;;24.45;58.28;100745.19;4432175;32;19996;-68
2022/09/05 08:28:00;;;;;;;;;;;;;;;24.60;56.59;100747.69;4432739;32;19987;-69
2022/09/05 08:30:26;;;;;;;;;;;;;;;24.75;57.24;100739.50;4436870;32;19957;-69
2022/09/05 08:35:34;;;;;;;;;;;;;;;26.21;53.40;100764.78;3953550;32;15730514;-69
2022/09/05 08:38:00;;;;;;;;;;;;;;;26.21;53.40;100764.78;4427682;32;20248;-70
2022/09/05 08:45:42;;;;;;;;;;;;;;;26.12;51.98;100768.84;3950307;32;15721490;-69
2022/09/05 08:50:58;;;;;;;;;;;;;;;25.28;54.07;100765.38;3966502;32;15723468;-70
2022/09/05 08:56:02;;;;;;;;;;;;;;;25.12;54.51;100756.91;3953085;32;15722985;-70
2022/09/05 09:03:51;;;;;;;;;;;;;;;25.09;55.20;100755.91;3958125;32;15723524;-68
2022/09/05 09:06:36;;;;;;;;;;;;;;;25.09;55.20;100755.91;4431874;32;20368;-68
2022/09/05 09:09:09;;;;;;;;;;;;;;;24.77;55.41;100754.12;4434123;32;19965;-68
2022/09/05 09:14:30;;;;;;;;;;;;;;;26.09;52.95;100760.50;3961295;32;15726179;-70
2022/09/05 09:17:15;;;;;;;;;;;;;;;26.09;52.95;100760.50;4436358;32;19973;-71
2022/09/05 09:22:27;;;;;;;;;;;;;;;27.95;49.10;100752.69;3959267;32;15726583;-71
2022/09/05 09:25:13;;;;;;;;;;;;;;;27.95;49.10;100752.69;4439092;32;20033;-72
2022/09/05 09:27:47;;;;;;;;;;;;;;;27.68;47.73;100751.16;4439673;32;20001;-70
2022/09/05 09:30:13;;;;;;;;;;;;;;;27.20;48.84;100749.47;4447438;32;20090;-70
2022/09/05 09:32:43;;;;;;;;;;;;;;;27.38;47.42;100744.94;4446807;32;19957;-70
2022/09/05 09:35:22;;;;;;;;;;;;;;;27.42;47.41;100748.28;4446361;32;20229;-70
2022/09/05 09:46:09;;;;;;;;;;;;;;;28.96;44.78;100753.41;3968535;31;15733124;-90
2022/09/05 09:48:56;;;;;;;;;;;;;;;28.96;44.78;100753.41;4434085;32;20057;-90
2022/09/05 09:51:30;;;;;;;;;;;;;;;28.89;44.60;100747.53;4444924;32;19942;-90
2022/09/05 10:04:37;;;;;;;;;;;;;;;29.55;42.74;100760.25;3962450;32;15721697;-70
2022/09/05 10:07:16;;;;;;;;;;;;;;;29.55;42.74;100760.25;4440267;32;20020;-70
2022/09/05 10:15:02;;;;;;;;;;;;;;;29.29;43.21;100760.44;3971487;31;15720497;-90
2022/09/05 10:20:30;;;;;;;;;;;;;;;29.66;43.17;100762.09;3964060;32;15726423;-70
2022/09/05 10:25:55;;;;;;;;;;;;;;;30.02;41.27;100765.72;3960775;32;15723294;-71
2022/09/05 10:33:36;;;;;;;;;;;;;;;30.17;39.81;100765.78;3961529;32;15722379;-70
2022/09/05 10:36:08;;;;;;;;;;;;;;;29.81;40.38;100759.25;4440766;32;20497;-70
2022/09/05 10:38:39;;;;;;;;;;;;;;;30.01;40.17;100755.47;4437226;32;19944;-70
2022/09/05 10:41:09;;;;;;;;;;;;;;;30.19;40.45;100755.16;4438926;32;19999;-71
2022/09/05 10:43:42;;;;;;;;;;;;;;;30.25;39.15;100749.22;4441865;32;19973;-70
2022/09/05 10:46:18;;;;;;;;;;;;;;;30.56;38.51;100739.97;4440961;32;19930;-70
2022/09/05 10:48:51;;;;;;;;;;;;;;;30.57;38.12;100738.63;4439505;32;20046;-70
2022/09/05 10:51:21;;;;;;;;;;;;;;;30.68;37.61;100741.16;4440877;32;19997;-70
2022/09/05 10:56:36;;;;;;;;;;;;;;;30.85;34.66;100740.59;3964020;32;15723487;-71
2022/09/05 10:59:03;;;;;;;;;;;;;;;30.85;34.66;100740.59;4441562;32;19993;-71
2022/09/05 11:01:38;;;;;;;;;;;;;;;30.86;35.08;100729.78;4438799;32;20004;-71
2022/09/05 11:06:51;;;;;;;;;;;;;;;31.45;33.23;100725.28;3948695;32;15746489;-72
2022/09/05 11:09:24;;;;;;;;;;;;;;;31.45;33.23;100725.28;4425330;32;19945;-69
2022/09/05 11:11:58;;;;;;;;;;;;;;;31.31;32.91;100730.53;4429308;32;20025;-69
2022/09/05 11:14:32;;;;;;;;;;;;;;;30.93;32.11;100723.97;4432641;32;19995;-70
2022/09/05 11:17:07;;;;;;;;;;;;;;;31.09;31.59;100733.44;4431794;32;19974;-72
2022/09/05 11:19:39;;;;;;;;;;;;;;;30.98;31.46;100725.88;4430967;32;19965;-70
2022/09/05 11:22:06;;;;;;;;;;;;;;;30.86;31.64;100723.97;4434051;32;20005;-70
2022/09/05 11:27:31;;;;;;;;;;;;;;;31.39;30.96;100731.31;3963133;32;15724633;-70
2022/09/05 11:35:25;;;;;;;;;;;;;;;31.60;30.91;100720.16;4118335;26;15722655;31
2022/09/05 11:43:52;;;;;;;;;;;;;;;31.93;30.95;100718.91;4608722;27;20159;-71
2022/09/05 11:51:57;;;;;;;;;;;;;;;33.93;28.06;100732.28;3970797;32;15721713;-69
2022/09/05 12:00:19;;;;;;;;;;;;;;;33.18;28.39;100715.53;4372182;27;20022;-70
2022/09/05 12:02:57;;;;;;;;;;;;;;;32.83;29.01;100716.81;4342618;32;20011;-71
2022/09/05 12:05:43;;;;;;;;;;;;;;;32.77;29.04;100719.19;4343355;32;19991;-71
2022/09/05 12:08:20;;;;;;;;;;;;;;;32.90;28.99;100718.91;4396102;27;19971;-71
2022/09/05 12:11:06;;;;;;;;;;;;;;;32.93;28.39;100714.81;4350124;32;20022;-71
2022/09/05 12:13:45;;;;;;;;;;;;;;;32.46;29.18;100725.25;4352336;33;20402;-72
2022/09/05 12:21:34;;;;;;;;;;;;;;;32.06;29.93;100721.56;3958828;32;15722437;-71
2022/09/05 12:26:43;;;;;;;;;;;;;;;31.84;29.45;100718.78;3965887;32;15725663;-71
2022/09/05 12:29:14;;;;;;;;;;;;;;;31.84;29.45;100718.78;4457384;32;20208;-71
2022/09/05 12:31:44;;;;;;;;;;;;;;;31.29;29.93;100720.84;4460442;32;19983;-71
2022/09/05 12:34:17;;;;;;;;;;;;;;;31.22;29.97;100724.50;4457174;32;19993;-71
2022/09/05 12:36:47;;;;;;;;;;;;;;;31.06;30.28;100726.66;4463278;32;20435;-70
2022/09/05 12:41:58;;;;;;;;;;;;;;;30.86;31.68;100712.34;3964349;31;15716011;-70
2022/09/05 12:44:35;;;;;;;;;;;;;;;30.73;31.55;100721.97;4441127;32;20023;-70
2022/09/05 12:49:40;;;;;;;;;;;;;;;31.79;30.78;100711.78;3941572;32;15722396;-69
2022/09/05 12:52:10;;;;;;;;;;;;;;;32.01;30.09;100708.03;4417457;32;19994;-73
2022/09/05 12:54:41;;;;;;;;;;;;;;;32.11;29.33;100705.22;4414033;32;19958;-70
2022/09/05 12:57:27;;;;;;;;;;;;;;;32.39;29.28;100699.84;4413543;32;19962;-71
2022/09/05 12:59:56;;;;;;;;;;;;;;;32.43;29.10;100711.84;4412550;32;20004;-70
2022/09/05 13:02:26;;;;;;;;;;;;;;;32.30;28.83;100709.19;4415892;32;20000;-70
2022/09/05 13:04:57;;;;;;;;;;;;;;;31.96;29.18;100706.09;4410116;32;19973;-70
2022/09/05 13:07:32;;;;;;;;;;;;;;;32.52;27.62;100719.19;4405848;32;19975;-71
2022/09/05 13:09:59;;;;;;;;;;;;;;;32.45;27.32;100712.03;4405821;32;20398;-70
2022/09/05 13:12:29;;;;;;;;;;;;;;;32.09;27.52;100700.00;4408398;32;19981;-70
2022/09/05 13:17:42;;;;;;;;;;;;;;;32.33;27.99;100727.63;3948648;32;15730162;-70
2022/09/05 13:22:52;;;;;;;;;;;;;;;32.08;28.43;100715.16;3945893;32;15726565;-70
2022/09/05 13:25:22;;;;;;;;;;;;;;;32.08;28.43;100715.16;4419324;32;20505;-69
2022/09/05 13:27:55;;;;;;;;;;;;;;;31.88;28.55;100714.09;4420055;32;20363;-70
2022/09/05 13:30:22;;;;;;;;;;;;;;;31.78;29.00;100707.31;4417383;32;20001;-69
2022/09/05 13:32:48;;;;;;;;;;;;;;;32.21;28.55;100712.75;4420081;32;19996;-70
2022/09/05 13:35:20;;;;;;;;;;;;;;;32.95;27.88;100712.88;4426184;32;20211;-70
2022/09/05 13:37:51;;;;;;;;;;;;;;;32.90;26.89;100707.25;4423233;32;20546;-70
2022/09/05 13:40:18;;;;;;;;;;;;;;;32.44;27.38;100709.72;4416857;32;19993;-71
2022/09/05 13:42:54;;;;;;;;;;;;;;;31.69;28.08;100707.16;4418330;32;20418;-70
2022/09/05 13:45:21;;;;;;;;;;;;;;;31.86;28.19;100711.00;4413550;32;19997;-68
2022/09/05 13:50:35;;;;;;;;;;;;;;;34.07;24.99;100710.84;3970033;31;15718781;-69
2022/09/05 13:53:08;;;;;;;;;;;;;;;34.07;24.99;100710.84;4445437;32;19972;-70
2022/09/05 13:58:15;;;;;;;;;;;;;;;34.03;25.01;100703.91;3943363;32;15723551;-69
2022/09/05 14:06:16;;;;;;;;;;;;;;;33.51;25.27;100703.16;3943988;32;15720402;-70
2022/09/05 14:08:59;;;;;;;;;;;;;;;34.15;24.65;100699.81;4407891;32;20328;-71
2022/09/05 14:11:44;;;;;;;;;;;;;;;34.71;23.66;100685.38;4412902;32;20001;-68
2022/09/05 14:14:19;;;;;;;;;;;;;;;34.94;23.65;100683.63;4408837;32;20118;-68
2022/09/05 14:16:48;;;;;;;;;;;;;;;35.22;23.07;100694.59;4411981;32;19991;-67
2022/09/05 14:22:02;;;;;;;;;;;;;;;36.22;22.49;100686.91;4411726;32;20044;-68
2022/09/05 14:24:32;;;;;;;;;;;;;;;35.86;22.56;100684.97;4413381;32;20409;-69
2022/09/05 14:29:39;;;;;;;;;;;;;;;34.45;23.92;100669.44;3950201;32;15726450;-71
2022/09/05 14:35:09;;;;;;;;;;;;;;;36.32;22.70;100657.63;3945721;32;15726573;-69
2022/09/05 14:40:45;;;;;;;;;;;;;;;35.10;23.93;100654.88;3945933;32;15722372;-71
2022/09/05 14:46:08;;;;;;;;;;;;;;;34.62;24.26;100651.03;3944788;32;15723113;-69
2022/09/05 14:54:07;;;;;;;;;;;;;;;33.96;25.23;100658.81;3946146;32;15723512;-68
2022/09/05 15:04:46;;;;;;;;;;;;;;;31.92;28.18;100667.09;3938604;32;15723163;-71
2022/09/05 15:07:18;;;;;;;;;;;;;;;31.92;28.18;100667.09;4421916;32;19968;-71
2022/09/05 15:09:46;;;;;;;;;;;;;;;30.65;29.92;100648.59;4423184;32;20027;-68
2022/09/05 15:12:16;;;;;;;;;;;;;;;30.16;30.80;100651.03;4424219;32;19992;-69
2022/09/05 15:14:50;;;;;;;;;;;;;;;29.92;31.63;100648.66;4423420;32;20841;-68
2022/09/05 15:17:20;;;;;;;;;;;;;;;29.36;32.18;100663.28;4425746;32;20012;-68
2022/09/05 15:19:55;;;;;;;;;;;;;;;29.20;32.88;100652.97;4423725;32;20417;-68
2022/09/05 15:22:23;;;;;;;;;;;;;;;28.96;33.41;100628.06;4424226;32;20327;-71
2022/09/05 15:25:09;;;;;;;;;;;;;;;29.02;33.61;100640.22;4425310;32;19977;-71
2022/09/05 15:27:35;;;;;;;;;;;;;;;29.36;33.31;100643.75;4429713;32;20102;-69
2022/09/05 15:30:01;;;;;;;;;;;;;;;29.60;32.90;100628.78;4425163;32;20049;-69
2022/09/05 15:32:29;;;;;;;;;;;;;;;29.61;33.10;100632.47;4425555;32;20001;-68
2022/09/05 15:34:57;;;;;;;;;;;;;;;29.37;33.58;100636.63;4426957;32;19953;-68
2022/09/05 15:40:00;;;;;;;;;;;;;;;30.28;32.65;100644.28;3953844;32;15722198;-69
2022/09/05 15:42:29;;;;;;;;;;;;;;;30.28;32.65;100644.28;4438576;32;20719;-69
2022/09/05 15:44:59;;;;;;;;;;;;;;;30.27;32.27;100639.06;4438744;32;19995;-68
2022/09/05 15:47:25;;;;;;;;;;;;;;;30.33;32.17;100642.56;4439252;32;19995;-67
2022/09/05 15:49:53;;;;;;;;;;;;;;;31.95;30.12;100628.88;4439914;32;19961;-69
2022/09/05 15:54:59;;;;;;;;;;;;;;;33.01;28.46;100619.31;3947748;32;15860632;-68
2022/09/05 15:57:26;;;;;;;;;;;;;;;33.01;28.46;100619.31;4428841;32;20016;-68
2022/09/05 15:59:56;;;;;;;;;;;;;;;32.44;29.10;100622.31;4426952;32;20009;-71
2022/09/05 16:02:23;;;;;;;;;;;;;;;32.42;29.29;100604.66;4427974;32;20180;-68
2022/09/05 16:04:54;;;;;;;;;;;;;;;31.85;29.85;100613.41;4429835;32;20019;-68
2022/09/05 16:07:22;;;;;;;;;;;;;;;31.31;30.73;100608.38;4427703;32;19958;-68
2022/09/05 16:09:52;;;;;;;;;;;;;;;31.17;31.08;100598.31;4425441;32;20336;-69
2022/09/05 16:12:37;;;;;;;;;;;;;;;30.79;31.69;100597.66;4428261;32;20268;-68
2022/09/05 16:15:04;;;;;;;;;;;;;;;30.74;31.92;100605.19;4426246;32;20049;-70
2022/09/05 16:20:12;;;;;;;;;;;;;;;33.68;27.95;100601.00;3949843;32;15723597;-68
2022/09/05 16:22:40;;;;;;;;;;;;;;;33.68;27.95;100601.00;4424254;32;20568;-68
2022/09/05 16:25:09;;;;;;;;;;;;;;;34.03;27.31;100601.69;4423989;32;20409;-69
2022/09/05 16:27:54;;;;;;;;;;;;;;;34.56;26.92;100597.91;4425387;32;19983;-69
2022/09/05 16:30:22;;;;;;;;;;;;;;;34.77;26.75;100598.12;4423874;32;19980;-67
2022/09/05 16:32:49;;;;;;;;;;;;;;;34.72;26.86;100597.03;4423378;32;20229;-69
2022/09/05 16:35:15;;;;;;;;;;;;;;;33.47;28.37;100585.34;4425556;32;19988;-69
2022/09/05 16:37:45;;;;;;;;;;;;;;;33.16;28.90;100578.31;4425234;32;19953;-68
2022/09/05 16:43:07;;;;;;;;;;;;;;;31.62;31.00;100571.19;3951271;32;15724389;-68
2022/09/05 16:48:23;;;;;;;;;;;;;;;30.44;32.99;100566.69;3950957;32;15725551;-70
2022/09/05 16:50:56;;;;;;;;;;;;;;;29.91;33.90;100562.97;4428126;32;19983;-68
2022/09/05 16:56:05;;;;;;;;;;;;;;;29.37;35.59;100551.75;3967096;31;15716161;-69
2022/09/05 16:58:41;;;;;;;;;;;;;;;29.37;35.59;100551.75;4442107;32;20274;-68
2022/09/05 17:03:53;;;;;;;;;;;;;;;29.24;36.35;100546.91;3954448;32;15723587;-68
2022/09/05 17:06:28;;;;;;;;;;;;;;;29.24;36.35;100546.91;4438918;32;20004;-69
2022/09/05 17:09:00;;;;;;;;;;;;;;;28.61;37.17;100541.87;4434174;32;20005;-68
2022/09/05 17:11:25;;;;;;;;;;;;;;;28.33;37.31;100545.53;4435393;32;19954;-69
2022/09/05 17:13:53;;;;;;;;;;;;;;;28.04;38.05;100540.25;4434875;32;20421;-67
2022/09/05 17:16:22;;;;;;;;;;;;;;;28.01;38.34;100532.72;4434503;32;20008;-70
2022/09/05 17:18:51;;;;;;;;;;;;;;;27.96;38.48;100553.88;4434739;32;20013;-68
2022/09/05 17:21:37;;;;;;;;;;;;;;;27.94;38.76;100557.31;4438540;32;19965;-70
2022/09/05 17:24:05;;;;;;;;;;;;;;;27.85;39.18;100557.03;4437506;32;19992;-67
2022/09/05 17:26:35;;;;;;;;;;;;;;;27.78;39.43;100551.91;4438146;32;19965;-69
2022/09/05 17:29:04;;;;;;;;;;;;;;;27.78;39.63;100549.81;4433790;32;20498;-69
2022/09/05 17:40:01;;;;;;;;;;;;;;;26.72;42.77;100541.94;3952366;32;15725466;-66
2022/09/05 17:42:46;;;;;;;;;;;;;;;26.72;42.77;100541.94;4433119;32;19953;-68
2022/09/05 17:45:34;;;;;;;;;;;;;;;26.15;44.53;100544.84;4431492;32;19977;-67
2022/09/05 17:47:59;;;;;;;;;;;;;;;25.90;45.89;100546.31;4425468;32;19975;-67
2022/09/05 17:53:04;;;;;;;;;;;;;;;26.22;46.76;100545.00;3954093;32;15724654;-67
2022/09/05 17:55:50;;;;;;;;;;;;;;;26.22;46.76;100545.00;4434546;32;20006;-67
2022/09/05 18:08:55;;;;;;;;;;;;;;;26.53;46.82;100526.81;3970188;31;15720291;-69
2022/09/05 18:13:59;;;;;;;;;;;;;;;26.42;46.86;100543.56;3968152;31;15722456;-67
2022/09/05 18:19:32;;;;;;;;;;;;;;;26.26;47.26;100550.44;3955121;32;15723282;-66
2022/09/05 18:22:18;;;;;;;;;;;;;;;26.26;47.26;100550.44;4438118;32;19970;-68
2022/09/05 18:30:02;;;;;;;;;;;;;;;25.67;47.65;100548.03;3946881;32;15721542;-70
2022/09/05 18:32:47;;;;;;;;;;;;;;;25.67;47.65;100548.03;4418538;32;20015;-67
2022/09/05 18:40:51;;;;;;;;;;;;;;;25.16;49.10;100565.22;3954689;32;15725367;-66
2022/09/05 18:45:56;;;;;;;;;;;;;;;25.04;49.40;100558.03;3953781;32;15724589;-67
2022/09/05 18:48:24;;;;;;;;;;;;;;;25.04;49.40;100558.03;4437243;32;19989;-68
2022/09/05 18:50:51;;;;;;;;;;;;;;;24.51;50.24;100555.28;4438711;32;19957;-69
2022/09/05 18:53:28;;;;;;;;;;;;;;;24.41;50.66;100554.84;4435160;32;19993;-67
2022/09/05 18:56:00;;;;;;;;;;;;;;;24.42;50.63;100561.41;4435980;32;20025;-67
2022/09/05 18:58:28;;;;;;;;;;;;;;;24.39;50.80;100559.59;4437331;32;20044;-70
2022/09/05 19:00:55;;;;;;;;;;;;;;;24.38;50.87;100567.44;4439074;32;19992;-69
2022/09/05 19:03:25;;;;;;;;;;;;;;;24.33;51.06;100567.50;4437591;32;19969;-68
2022/09/05 19:08:30;;;;;;;;;;;;;;;24.71;50.68;100570.00;3958468;32;15725484;-69
2022/09/05 19:10:57;;;;;;;;;;;;;;;24.71;50.68;100570.00;4428108;32;20028;-68
2022/09/05 19:13:28;;;;;;;;;;;;;;;24.28;51.46;100574.88;4434586;32;20404;-68